sensor_id;sensor_type;location;lat;lon;timestamp;P1;durP1;ratioP1;P2;durP2;ratioP2
58974;SDS011;44751;52.236;5.178;2022-12-01T00:01:08;57.80;;;26.70;;
58974;SDS011;44751;52.236;5.178;2022-12-01T00:03:35;55.95;;;28.05;;
58974;SDS011;44751;52.236;5.178;2022-12-01T00:06:03;54.30;;;26.42;;
58974;SDS011;44751;52.236;5.178;2022-12-01T00:08:49;62.05;;;27.60;;
58974;SDS011;44751;52.236;5.178;2022-12-01T00:11:34;57.85;;;27.70;;
58974;SDS011;44751;52.236;5.178;2022-12-01T00:14:01;54.83;;;26.10;;
58974;SDS011;44751;52.236;5.178;2022-12-01T00:16:29;59.17;;;27.15;;
58974;SDS011;44751;52.236;5.178;2022-12-01T00:18:55;51.90;;;25.10;;
58974;SDS011;44751;52.236;5.178;2022-12-01T00:21:23;57.08;;;26.88;;
58974;SDS011;44751;52.236;5.178;2022-12-01T00:23:51;58.10;;;27.50;;
58974;SDS011;44751;52.236;5.178;2022-12-01T00:26:20;61.08;;;27.20;;
58974;SDS011;44751;52.236;5.178;2022-12-01T00:28:51;54.75;;;25.75;;
58974;SDS011;44751;52.236;5.178;2022-12-01T00:31:21;51.30;;;25.42;;
58974;SDS011;44751;52.236;5.178;2022-12-01T00:33:48;56.47;;;28.50;;
58974;SDS011;44751;52.236;5.178;2022-12-01T00:36:14;61.38;;;27.98;;
58974;SDS011;44751;52.236;5.178;2022-12-01T00:38:41;61.80;;;29.40;;
58974;SDS011;44751;52.236;5.178;2022-12-01T00:41:08;57.60;;;26.90;;
58974;SDS011;44751;52.236;5.178;2022-12-01T00:43:34;61.80;;;28.23;;
58974;SDS011;44751;52.236;5.178;2022-12-01T00:46:01;60.10;;;27.15;;
58974;SDS011;44751;52.236;5.178;2022-12-01T00:48:28;63.88;;;27.92;;
58974;SDS011;44751;52.236;5.178;2022-12-01T00:50:54;56.17;;;27.30;;
58974;SDS011;44751;52.236;5.178;2022-12-01T00:53:22;61.80;;;28.13;;
58974;SDS011;44751;52.236;5.178;2022-12-01T00:55:48;56.78;;;27.15;;
58974;SDS011;44751;52.236;5.178;2022-12-01T00:58:21;54.00;;;26.00;;
58974;SDS011;44751;52.236;5.178;2022-12-01T01:00:55;61.63;;;28.75;;
58974;SDS011;44751;52.236;5.178;2022-12-01T01:03:26;63.58;;;29.40;;
58974;SDS011;44751;52.236;5.178;2022-12-01T01:06:01;53.67;;;26.42;;
58974;SDS011;44751;52.236;5.178;2022-12-01T01:08:32;58.10;;;27.05;;
58974;SDS011;44751;52.236;5.178;2022-12-01T01:10:59;57.75;;;27.88;;
58974;SDS011;44751;52.236;5.178;2022-12-01T01:13:27;53.80;;;26.00;;
58974;SDS011;44751;52.236;5.178;2022-12-01T01:15:58;64.10;;;28.13;;
58974;SDS011;44751;52.236;5.178;2022-12-01T01:18:26;52.63;;;24.98;;
58974;SDS011;44751;52.236;5.178;2022-12-01T01:20:57;56.92;;;26.75;;
58974;SDS011;44751;52.236;5.178;2022-12-01T01:23:32;55.85;;;26.50;;
58974;SDS011;44751;52.236;5.178;2022-12-01T01:26:03;51.13;;;25.73;;
58974;SDS011;44751;52.236;5.178;2022-12-01T01:28:32;55.83;;;26.23;;
58974;SDS011;44751;52.236;5.178;2022-12-01T01:31:04;58.47;;;27.23;;
58974;SDS011;44751;52.236;5.178;2022-12-01T01:33:31;55.00;;;25.23;;
58974;SDS011;44751;52.236;5.178;2022-12-01T01:35:58;58.50;;;26.75;;
58974;SDS011;44751;52.236;5.178;2022-12-01T01:38:25;64.35;;;27.50;;
58974;SDS011;44751;52.236;5.178;2022-12-01T01:40:57;56.08;;;27.25;;
58974;SDS011;44751;52.236;5.178;2022-12-01T01:46:20;56.53;;;26.33;;
58974;SDS011;44751;52.236;5.178;2022-12-01T01:49:00;56.45;;;26.45;;
58974;SDS011;44751;52.236;5.178;2022-12-01T01:51:39;65.60;;;29.02;;
58974;SDS011;44751;52.236;5.178;2022-12-01T01:54:10;53.78;;;26.75;;
58974;SDS011;44751;52.236;5.178;2022-12-01T01:56:45;52.67;;;27.60;;
58974;SDS011;44751;52.236;5.178;2022-12-01T01:59:18;52.97;;;24.70;;
58974;SDS011;44751;52.236;5.178;2022-12-01T02:01:54;53.92;;;25.95;;
58974;SDS011;44751;52.236;5.178;2022-12-01T02:04:25;55.65;;;25.52;;
58974;SDS011;44751;52.236;5.178;2022-12-01T02:06:53;54.25;;;26.15;;
58974;SDS011;44751;52.236;5.178;2022-12-01T02:09:20;53.08;;;25.48;;
58974;SDS011;44751;52.236;5.178;2022-12-01T02:11:59;59.20;;;26.45;;
58974;SDS011;44751;52.236;5.178;2022-12-01T02:15:44;59.20;;;27.30;;
58974;SDS011;44751;52.236;5.178;2022-12-01T02:23:32;62.33;;;27.48;;
58974;SDS011;44751;52.236;5.178;2022-12-01T02:29:04;58.33;;;27.23;;
58974;SDS011;44751;52.236;5.178;2022-12-01T02:31:41;61.13;;;27.63;;
58974;SDS011;44751;52.236;5.178;2022-12-01T02:35:03;60.40;;;27.40;;
58974;SDS011;44751;52.236;5.178;2022-12-01T02:41:04;60.10;;;27.50;;
58974;SDS011;44751;52.236;5.178;2022-12-01T02:48:53;66.80;;;28.65;;
58974;SDS011;44751;52.236;5.178;2022-12-01T02:51:24;64.40;;;28.65;;
58974;SDS011;44751;52.236;5.178;2022-12-01T02:53:54;61.22;;;27.40;;
58974;SDS011;44751;52.236;5.178;2022-12-01T02:56:23;64.20;;;28.15;;
58974;SDS011;44751;52.236;5.178;2022-12-01T02:58:57;62.85;;;28.35;;
58974;SDS011;44751;52.236;5.178;2022-12-01T03:06:54;57.25;;;27.10;;
58974;SDS011;44751;52.236;5.178;2022-12-01T03:12:22;62.63;;;28.00;;
58974;SDS011;44751;52.236;5.178;2022-12-01T03:15:05;61.90;;;29.20;;
58974;SDS011;44751;52.236;5.178;2022-12-01T03:17:44;63.90;;;27.90;;
58974;SDS011;44751;52.236;5.178;2022-12-01T03:20:19;63.08;;;28.02;;
58974;SDS011;44751;52.236;5.178;2022-12-01T03:22:54;63.65;;;27.90;;
58974;SDS011;44751;52.236;5.178;2022-12-01T03:25:25;61.08;;;26.85;;
58974;SDS011;44751;52.236;5.178;2022-12-01T03:27:54;65.85;;;28.85;;
58974;SDS011;44751;52.236;5.178;2022-12-01T03:30:23;59.25;;;27.55;;
58974;SDS011;44751;52.236;5.178;2022-12-01T03:32:53;63.63;;;28.02;;
58974;SDS011;44751;52.236;5.178;2022-12-01T03:38:51;60.90;;;27.85;;
58974;SDS011;44751;52.236;5.178;2022-12-01T03:41:58;62.03;;;27.85;;
58974;SDS011;44751;52.236;5.178;2022-12-01T03:45:00;63.60;;;26.02;;
58974;SDS011;44751;52.236;5.178;2022-12-01T03:48:01;59.15;;;26.27;;
58974;SDS011;44751;52.236;5.178;2022-12-01T03:50:34;67.32;;;27.60;;
58974;SDS011;44751;52.236;5.178;2022-12-01T03:53:12;66.22;;;28.38;;
58974;SDS011;44751;52.236;5.178;2022-12-01T03:55:49;62.05;;;27.48;;
58974;SDS011;44751;52.236;5.178;2022-12-01T03:58:22;61.75;;;27.35;;
58974;SDS011;44751;52.236;5.178;2022-12-01T04:00:53;64.35;;;28.35;;
58974;SDS011;44751;52.236;5.178;2022-12-01T04:03:23;62.95;;;27.45;;
58974;SDS011;44751;52.236;5.178;2022-12-01T04:05:50;60.00;;;27.45;;
58974;SDS011;44751;52.236;5.178;2022-12-01T04:08:17;69.95;;;29.17;;
58974;SDS011;44751;52.236;5.178;2022-12-01T04:10:43;64.63;;;28.17;;
58974;SDS011;44751;52.236;5.178;2022-12-01T04:13:10;73.82;;;30.73;;
58974;SDS011;44751;52.236;5.178;2022-12-01T04:15:40;63.67;;;28.95;;
58974;SDS011;44751;52.236;5.178;2022-12-01T04:18:07;69.78;;;30.52;;
58974;SDS011;44751;52.236;5.178;2022-12-01T04:20:34;62.65;;;28.27;;
58974;SDS011;44751;52.236;5.178;2022-12-01T04:23:00;65.88;;;29.35;;
58974;SDS011;44751;52.236;5.178;2022-12-01T04:25:27;58.95;;;27.45;;
58974;SDS011;44751;52.236;5.178;2022-12-01T04:27:53;70.53;;;29.98;;
58974;SDS011;44751;52.236;5.178;2022-12-01T04:30:27;72.07;;;30.40;;
58974;SDS011;44751;52.236;5.178;2022-12-01T04:32:53;63.15;;;28.45;;
58974;SDS011;44751;52.236;5.178;2022-12-01T04:35:20;59.03;;;27.10;;
58974;SDS011;44751;52.236;5.178;2022-12-01T04:37:46;69.82;;;28.65;;
58974;SDS011;44751;52.236;5.178;2022-12-01T04:40:12;68.28;;;28.80;;
58974;SDS011;44751;52.236;5.178;2022-12-01T04:42:42;74.60;;;29.23;;
58974;SDS011;44751;52.236;5.178;2022-12-01T04:45:08;68.82;;;28.73;;
58974;SDS011;44751;52.236;5.178;2022-12-01T04:47:35;65.10;;;26.17;;
58974;SDS011;44751;52.236;5.178;2022-12-01T04:50:01;61.92;;;28.17;;
58974;SDS011;44751;52.236;5.178;2022-12-01T04:52:28;62.75;;;26.98;;
58974;SDS011;44751;52.236;5.178;2022-12-01T04:54:55;66.15;;;27.17;;
58974;SDS011;44751;52.236;5.178;2022-12-01T04:57:21;74.63;;;28.85;;
58974;SDS011;44751;52.236;5.178;2022-12-01T04:59:47;74.88;;;28.83;;
58974;SDS011;44751;52.236;5.178;2022-12-01T05:02:14;60.45;;;26.50;;
58974;SDS011;44751;52.236;5.178;2022-12-01T05:04:41;71.18;;;27.90;;
58974;SDS011;44751;52.236;5.178;2022-12-01T05:07:10;62.65;;;26.75;;
58974;SDS011;44751;52.236;5.178;2022-12-01T05:09:36;61.50;;;26.45;;
58974;SDS011;44751;52.236;5.178;2022-12-01T05:12:03;63.08;;;26.65;;
58974;SDS011;44751;52.236;5.178;2022-12-01T05:14:29;63.35;;;27.95;;
58974;SDS011;44751;52.236;5.178;2022-12-01T05:16:56;65.13;;;27.73;;
58974;SDS011;44751;52.236;5.178;2022-12-01T05:19:23;63.13;;;27.17;;
58974;SDS011;44751;52.236;5.178;2022-12-01T05:22:07;59.13;;;26.75;;
58974;SDS011;44751;52.236;5.178;2022-12-01T05:24:34;65.53;;;26.67;;
58974;SDS011;44751;52.236;5.178;2022-12-01T05:27:00;69.32;;;27.65;;
58974;SDS011;44751;52.236;5.178;2022-12-01T05:29:27;67.30;;;27.13;;
58974;SDS011;44751;52.236;5.178;2022-12-01T05:31:58;70.10;;;27.42;;
58974;SDS011;44751;52.236;5.178;2022-12-01T05:34:25;71.15;;;27.70;;
58974;SDS011;44751;52.236;5.178;2022-12-01T05:36:51;67.07;;;26.42;;
58974;SDS011;44751;52.236;5.178;2022-12-01T05:39:18;67.18;;;26.90;;
58974;SDS011;44751;52.236;5.178;2022-12-01T05:41:44;62.95;;;25.90;;
58974;SDS011;44751;52.236;5.178;2022-12-01T05:44:13;66.05;;;26.60;;
58974;SDS011;44751;52.236;5.178;2022-12-01T05:46:40;67.10;;;26.70;;
58974;SDS011;44751;52.236;5.178;2022-12-01T05:49:06;64.15;;;25.60;;
58974;SDS011;44751;52.236;5.178;2022-12-01T05:51:32;60.75;;;24.95;;
58974;SDS011;44751;52.236;5.178;2022-12-01T05:53:59;60.90;;;25.73;;
58974;SDS011;44751;52.236;5.178;2022-12-01T05:56:25;61.85;;;26.20;;
58974;SDS011;44751;52.236;5.178;2022-12-01T05:58:52;61.00;;;25.10;;
58974;SDS011;44751;52.236;5.178;2022-12-01T06:01:19;64.15;;;25.05;;
58974;SDS011;44751;52.236;5.178;2022-12-01T06:03:45;61.50;;;25.60;;
58974;SDS011;44751;52.236;5.178;2022-12-01T06:06:11;62.40;;;25.77;;
58974;SDS011;44751;52.236;5.178;2022-12-01T10:39:42;65.53;;;28.70;;
58974;SDS011;44751;52.236;5.178;2022-12-01T10:42:12;65.43;;;29.02;;
58974;SDS011;44751;52.236;5.178;2022-12-01T10:44:44;62.43;;;29.33;;
58974;SDS011;44751;52.236;5.178;2022-12-01T10:47:17;62.55;;;29.38;;
58974;SDS011;44751;52.236;5.178;2022-12-01T10:49:48;64.85;;;29.02;;
58974;SDS011;44751;52.236;5.178;2022-12-01T10:52:48;59.20;;;28.00;;
58974;SDS011;44751;52.236;5.178;2022-12-01T10:57:50;59.03;;;26.95;;
58974;SDS011;44751;52.236;5.178;2022-12-01T11:00:23;53.55;;;26.38;;
58974;SDS011;44751;52.236;5.178;2022-12-01T11:02:51;58.17;;;27.58;;
58974;SDS011;44751;52.236;5.178;2022-12-01T11:05:24;58.75;;;27.40;;
58974;SDS011;44751;52.236;5.178;2022-12-01T11:07:55;58.05;;;27.77;;
58974;SDS011;44751;52.236;5.178;2022-12-01T11:12:52;61.25;;;28.55;;
58974;SDS011;44751;52.236;5.178;2022-12-01T11:15:28;55.10;;;25.97;;
58974;SDS011;44751;52.236;5.178;2022-12-01T11:20:31;61.97;;;28.10;;
58974;SDS011;44751;52.236;5.178;2022-12-01T11:28:27;53.38;;;26.35;;
58974;SDS011;44751;52.236;5.178;2022-12-01T11:30:59;58.33;;;26.63;;
58974;SDS011;44751;52.236;5.178;2022-12-01T11:33:31;61.42;;;26.75;;
58974;SDS011;44751;52.236;5.178;2022-12-01T11:36:04;56.80;;;26.35;;
58974;SDS011;44751;52.236;5.178;2022-12-01T11:38:35;54.70;;;25.98;;
58974;SDS011;44751;52.236;5.178;2022-12-01T11:41:01;55.63;;;26.95;;
58974;SDS011;44751;52.236;5.178;2022-12-01T11:43:34;52.78;;;25.50;;
58974;SDS011;44751;52.236;5.178;2022-12-01T11:46:04;45.45;;;22.67;;
58974;SDS011;44751;52.236;5.178;2022-12-01T11:48:34;47.38;;;23.00;;
58974;SDS011;44751;52.236;5.178;2022-12-01T11:51:14;44.35;;;21.42;;
58974;SDS011;44751;52.236;5.178;2022-12-01T11:54:04;47.13;;;22.25;;
58974;SDS011;44751;52.236;5.178;2022-12-01T11:56:45;47.08;;;21.73;;
58974;SDS011;44751;52.236;5.178;2022-12-01T11:59:17;42.45;;;21.77;;
58974;SDS011;44751;52.236;5.178;2022-12-01T12:22:10;56.13;;;26.77;;
58974;SDS011;44751;52.236;5.178;2022-12-01T12:30:38;52.75;;;26.13;;
58974;SDS011;44751;52.236;5.178;2022-12-01T12:42:19;48.63;;;24.23;;
58974;SDS011;44751;52.236;5.178;2022-12-01T12:45:15;50.88;;;24.40;;
58974;SDS011;44751;52.236;5.178;2022-12-01T12:50:39;47.88;;;22.83;;
58974;SDS011;44751;52.236;5.178;2022-12-01T12:53:13;47.70;;;23.83;;
58974;SDS011;44751;52.236;5.178;2022-12-01T12:55:50;47.40;;;24.90;;
58974;SDS011;44751;52.236;5.178;2022-12-01T12:58:21;51.17;;;24.75;;
58974;SDS011;44751;52.236;5.178;2022-12-01T13:00:53;47.42;;;23.67;;
58974;SDS011;44751;52.236;5.178;2022-12-01T13:03:41;44.15;;;22.90;;
58974;SDS011;44751;52.236;5.178;2022-12-01T13:06:21;49.65;;;24.17;;
58974;SDS011;44751;52.236;5.178;2022-12-01T13:11:43;44.92;;;23.23;;
58974;SDS011;44751;52.236;5.178;2022-12-01T13:14:23;43.63;;;21.33;;
58974;SDS011;44751;52.236;5.178;2022-12-01T13:16:55;43.42;;;22.45;;
58974;SDS011;44751;52.236;5.178;2022-12-01T13:19:28;41.85;;;21.33;;
58974;SDS011;44751;52.236;5.178;2022-12-01T13:21:58;37.95;;;19.70;;
58974;SDS011;44751;52.236;5.178;2022-12-01T13:24:26;42.55;;;20.95;;
58974;SDS011;44751;52.236;5.178;2022-12-01T13:26:58;36.67;;;19.83;;
58974;SDS011;44751;52.236;5.178;2022-12-01T13:29:31;41.25;;;20.42;;
58974;SDS011;44751;52.236;5.178;2022-12-01T13:32:00;37.60;;;19.50;;
58974;SDS011;44751;52.236;5.178;2022-12-01T13:34:30;36.60;;;19.58;;
58974;SDS011;44751;52.236;5.178;2022-12-01T13:37:10;35.40;;;19.05;;
58974;SDS011;44751;52.236;5.178;2022-12-01T13:39:37;38.33;;;19.15;;
58974;SDS011;44751;52.236;5.178;2022-12-01T13:47:38;35.35;;;18.98;;
58974;SDS011;44751;52.236;5.178;2022-12-01T13:55:57;33.22;;;18.15;;
58974;SDS011;44751;52.236;5.178;2022-12-01T13:58:51;37.17;;;18.55;;
58974;SDS011;44751;52.236;5.178;2022-12-01T14:06:43;37.65;;;19.55;;
58974;SDS011;44751;52.236;5.178;2022-12-01T14:09:26;33.83;;;17.65;;
58974;SDS011;44751;52.236;5.178;2022-12-01T14:12:00;32.72;;;17.88;;
58974;SDS011;44751;52.236;5.178;2022-12-01T14:14:33;39.45;;;19.27;;
58974;SDS011;44751;52.236;5.178;2022-12-01T14:19:42;34.08;;;17.77;;
58974;SDS011;44751;52.236;5.178;2022-12-01T14:27:46;33.25;;;16.58;;
58974;SDS011;44751;52.236;5.178;2022-12-01T14:41:24;34.03;;;17.45;;
58974;SDS011;44751;52.236;5.178;2022-12-01T14:43:59;38.78;;;18.67;;
58974;SDS011;44751;52.236;5.178;2022-12-01T14:46:34;35.22;;;18.40;;
58974;SDS011;44751;52.236;5.178;2022-12-01T14:49:10;35.40;;;17.90;;
58974;SDS011;44751;52.236;5.178;2022-12-01T14:51:42;34.88;;;18.23;;
58974;SDS011;44751;52.236;5.178;2022-12-01T14:54:16;39.80;;;19.10;;
58974;SDS011;44751;52.236;5.178;2022-12-01T14:56:46;40.60;;;18.75;;
58974;SDS011;44751;52.236;5.178;2022-12-01T14:59:21;38.75;;;18.25;;
58974;SDS011;44751;52.236;5.178;2022-12-01T15:01:50;36.08;;;18.25;;
58974;SDS011;44751;52.236;5.178;2022-12-01T15:04:19;36.40;;;18.85;;
58974;SDS011;44751;52.236;5.178;2022-12-01T15:06:53;39.78;;;18.77;;
58974;SDS011;44751;52.236;5.178;2022-12-01T15:09:23;37.15;;;18.52;;
58974;SDS011;44751;52.236;5.178;2022-12-01T15:12:03;35.35;;;18.90;;
58974;SDS011;44751;52.236;5.178;2022-12-01T15:17:27;43.28;;;19.60;;
58974;SDS011;44751;52.236;5.178;2022-12-01T15:19:58;38.22;;;19.33;;
58974;SDS011;44751;52.236;5.178;2022-12-01T15:22:28;34.50;;;18.02;;
58974;SDS011;44751;52.236;5.178;2022-12-01T15:25:06;36.90;;;18.83;;
58974;SDS011;44751;52.236;5.178;2022-12-01T15:27:38;38.25;;;18.25;;
58974;SDS011;44751;52.236;5.178;2022-12-01T15:30:05;39.17;;;17.95;;
58974;SDS011;44751;52.236;5.178;2022-12-01T15:32:35;37.72;;;17.52;;
58974;SDS011;44751;52.236;5.178;2022-12-01T15:35:03;37.28;;;18.38;;
58974;SDS011;44751;52.236;5.178;2022-12-01T15:37:33;38.03;;;19.15;;
58974;SDS011;44751;52.236;5.178;2022-12-01T15:40:10;34.42;;;17.70;;
58974;SDS011;44751;52.236;5.178;2022-12-01T15:42:41;37.10;;;18.48;;
58974;SDS011;44751;52.236;5.178;2022-12-01T15:50:24;35.90;;;18.67;;
58974;SDS011;44751;52.236;5.178;2022-12-01T15:52:53;36.40;;;18.42;;
58974;SDS011;44751;52.236;5.178;2022-12-01T15:55:40;36.58;;;18.92;;
58974;SDS011;44751;52.236;5.178;2022-12-01T15:58:18;38.55;;;19.98;;
58974;SDS011;44751;52.236;5.178;2022-12-01T16:01:04;37.90;;;18.75;;
58974;SDS011;44751;52.236;5.178;2022-12-01T16:03:57;39.58;;;19.13;;
58974;SDS011;44751;52.236;5.178;2022-12-01T16:06:36;40.78;;;18.67;;
58974;SDS011;44751;52.236;5.178;2022-12-01T16:09:18;36.20;;;18.02;;
58974;SDS011;44751;52.236;5.178;2022-12-01T16:14:51;36.73;;;17.73;;
58974;SDS011;44751;52.236;5.178;2022-12-01T16:17:47;37.70;;;18.50;;
58974;SDS011;44751;52.236;5.178;2022-12-01T16:20:25;36.72;;;17.15;;
58974;SDS011;44751;52.236;5.178;2022-12-01T16:23:08;35.67;;;16.95;;
58974;SDS011;44751;52.236;5.178;2022-12-01T16:25:41;37.55;;;18.27;;
58974;SDS011;44751;52.236;5.178;2022-12-01T16:28:19;40.95;;;19.20;;
58974;SDS011;44751;52.236;5.178;2022-12-01T16:30:48;35.97;;;18.15;;
58974;SDS011;44751;52.236;5.178;2022-12-01T16:33:17;41.10;;;19.38;;
58974;SDS011;44751;52.236;5.178;2022-12-01T16:35:49;37.45;;;19.17;;
58974;SDS011;44751;52.236;5.178;2022-12-01T16:38:18;40.78;;;19.75;;
58974;SDS011;44751;52.236;5.178;2022-12-01T16:40:55;36.13;;;18.80;;
58974;SDS011;44751;52.236;5.178;2022-12-01T16:43:24;36.83;;;17.65;;
58974;SDS011;44751;52.236;5.178;2022-12-01T16:45:58;36.45;;;17.17;;
58974;SDS011;44751;52.236;5.178;2022-12-01T16:48:29;36.58;;;18.70;;
58974;SDS011;44751;52.236;5.178;2022-12-01T16:50:56;40.95;;;19.85;;
58974;SDS011;44751;52.236;5.178;2022-12-01T16:53:32;37.80;;;17.95;;
58974;SDS011;44751;52.236;5.178;2022-12-01T16:55:59;40.22;;;19.38;;
58974;SDS011;44751;52.236;5.178;2022-12-01T16:58:28;37.85;;;17.75;;
58974;SDS011;44751;52.236;5.178;2022-12-01T17:00:55;37.75;;;18.98;;
58974;SDS011;44751;52.236;5.178;2022-12-01T17:03:25;37.03;;;18.10;;
58974;SDS011;44751;52.236;5.178;2022-12-01T17:05:53;35.83;;;18.83;;
58974;SDS011;44751;52.236;5.178;2022-12-01T17:08:20;39.50;;;18.38;;
58974;SDS011;44751;52.236;5.178;2022-12-01T17:10:47;36.58;;;17.60;;
58974;SDS011;44751;52.236;5.178;2022-12-01T17:13:15;33.53;;;17.13;;
58974;SDS011;44751;52.236;5.178;2022-12-01T17:15:47;39.30;;;18.10;;
58974;SDS011;44751;52.236;5.178;2022-12-01T17:18:16;34.40;;;17.20;;
58974;SDS011;44751;52.236;5.178;2022-12-01T17:20:54;34.50;;;16.90;;
58974;SDS011;44751;52.236;5.178;2022-12-01T17:23:25;38.70;;;17.00;;
58974;SDS011;44751;52.236;5.178;2022-12-01T17:25:51;35.80;;;17.55;;
58974;SDS011;44751;52.236;5.178;2022-12-01T17:28:18;33.90;;;17.02;;
58974;SDS011;44751;52.236;5.178;2022-12-01T17:30:48;33.67;;;17.40;;
58974;SDS011;44751;52.236;5.178;2022-12-01T17:33:14;34.03;;;17.13;;
58974;SDS011;44751;52.236;5.178;2022-12-01T17:35:41;81.28;;;32.65;;
58974;SDS011;44751;52.236;5.178;2022-12-01T17:38:07;60.15;;;26.13;;
58974;SDS011;44751;52.236;5.178;2022-12-01T17:40:37;43.90;;;20.02;;
58974;SDS011;44751;52.236;5.178;2022-12-01T17:43:06;35.85;;;17.85;;
58974;SDS011;44751;52.236;5.178;2022-12-01T17:45:33;39.63;;;18.38;;
58974;SDS011;44751;52.236;5.178;2022-12-01T17:48:05;32.63;;;16.02;;
58974;SDS011;44751;52.236;5.178;2022-12-01T17:50:33;31.98;;;17.00;;
58974;SDS011;44751;52.236;5.178;2022-12-01T17:52:59;34.25;;;16.95;;
58974;SDS011;44751;52.236;5.178;2022-12-01T17:55:26;34.42;;;16.67;;
58974;SDS011;44751;52.236;5.178;2022-12-01T17:57:56;35.47;;;16.55;;
58974;SDS011;44751;52.236;5.178;2022-12-01T18:00:23;31.77;;;16.02;;
58974;SDS011;44751;52.236;5.178;2022-12-01T18:02:49;33.58;;;16.13;;
58974;SDS011;44751;52.236;5.178;2022-12-01T18:05:16;38.22;;;17.50;;
58974;SDS011;44751;52.236;5.178;2022-12-01T18:07:42;34.95;;;17.08;;
58974;SDS011;44751;52.236;5.178;2022-12-01T18:10:09;32.50;;;16.50;;
58974;SDS011;44751;52.236;5.178;2022-12-01T18:12:37;33.88;;;16.20;;
58974;SDS011;44751;52.236;5.178;2022-12-01T18:15:03;33.70;;;16.88;;
58974;SDS011;44751;52.236;5.178;2022-12-01T18:17:31;33.20;;;17.08;;
58974;SDS011;44751;52.236;5.178;2022-12-01T18:20:00;32.63;;;15.85;;
58974;SDS011;44751;52.236;5.178;2022-12-01T18:22:26;33.22;;;15.77;;
58974;SDS011;44751;52.236;5.178;2022-12-01T18:24:55;33.63;;;15.93;;
58974;SDS011;44751;52.236;5.178;2022-12-01T18:27:23;32.28;;;15.95;;
58974;SDS011;44751;52.236;5.178;2022-12-01T18:29:49;32.63;;;15.82;;
58974;SDS011;44751;52.236;5.178;2022-12-01T18:32:16;33.28;;;17.13;;
58974;SDS011;44751;52.236;5.178;2022-12-01T18:34:45;32.65;;;16.67;;
58974;SDS011;44751;52.236;5.178;2022-12-01T18:37:13;30.15;;;15.80;;
58974;SDS011;44751;52.236;5.178;2022-12-01T18:39:40;33.17;;;15.75;;
58974;SDS011;44751;52.236;5.178;2022-12-01T18:42:06;34.10;;;15.90;;
58974;SDS011;44751;52.236;5.178;2022-12-01T18:44:33;32.42;;;16.15;;
58974;SDS011;44751;52.236;5.178;2022-12-01T18:47:00;36.20;;;16.65;;
58974;SDS011;44751;52.236;5.178;2022-12-01T18:49:27;37.28;;;18.77;;
58974;SDS011;44751;52.236;5.178;2022-12-01T18:51:54;39.85;;;18.98;;
58974;SDS011;44751;52.236;5.178;2022-12-01T18:54:21;40.50;;;18.92;;
58974;SDS011;44751;52.236;5.178;2022-12-01T18:56:49;44.05;;;18.90;;
58974;SDS011;44751;52.236;5.178;2022-12-01T18:59:25;39.35;;;18.30;;
58974;SDS011;44751;52.236;5.178;2022-12-01T19:01:52;35.95;;;17.15;;
58974;SDS011;44751;52.236;5.178;2022-12-01T19:04:19;32.67;;;16.42;;
58974;SDS011;44751;52.236;5.178;2022-12-01T19:06:47;33.17;;;17.23;;
58974;SDS011;44751;52.236;5.178;2022-12-01T19:09:14;37.80;;;17.70;;
58974;SDS011;44751;52.236;5.178;2022-12-01T19:11:44;35.95;;;17.92;;
58974;SDS011;44751;52.236;5.178;2022-12-01T19:14:14;36.97;;;17.58;;
58974;SDS011;44751;52.236;5.178;2022-12-01T19:16:43;31.42;;;16.45;;
58974;SDS011;44751;52.236;5.178;2022-12-01T19:19:10;31.63;;;15.68;;
58974;SDS011;44751;52.236;5.178;2022-12-01T19:21:40;34.38;;;15.77;;
58974;SDS011;44751;52.236;5.178;2022-12-01T19:24:09;30.65;;;14.75;;
58974;SDS011;44751;52.236;5.178;2022-12-01T19:26:35;32.25;;;15.75;;
58974;SDS011;44751;52.236;5.178;2022-12-01T19:29:02;32.47;;;16.33;;
58974;SDS011;44751;52.236;5.178;2022-12-01T19:31:29;32.30;;;15.45;;
58974;SDS011;44751;52.236;5.178;2022-12-01T19:33:58;32.47;;;16.45;;
58974;SDS011;44751;52.236;5.178;2022-12-01T19:36:26;33.03;;;15.95;;
58974;SDS011;44751;52.236;5.178;2022-12-01T19:38:54;31.85;;;15.63;;
58974;SDS011;44751;52.236;5.178;2022-12-01T19:41:22;33.50;;;16.13;;
58974;SDS011;44751;52.236;5.178;2022-12-01T19:43:49;33.13;;;16.83;;
58974;SDS011;44751;52.236;5.178;2022-12-01T19:46:18;28.42;;;15.27;;
58974;SDS011;44751;52.236;5.178;2022-12-01T19:48:46;29.08;;;14.68;;
58974;SDS011;44751;52.236;5.178;2022-12-01T19:51:19;27.88;;;14.18;;
58974;SDS011;44751;52.236;5.178;2022-12-01T19:53:52;28.17;;;14.38;;
58974;SDS011;44751;52.236;5.178;2022-12-01T19:56:21;30.50;;;14.60;;
58974;SDS011;44751;52.236;5.178;2022-12-01T19:58:48;31.48;;;14.95;;
58974;SDS011;44751;52.236;5.178;2022-12-01T20:01:15;31.30;;;15.25;;
58974;SDS011;44751;52.236;5.178;2022-12-01T20:03:53;32.25;;;15.52;;
58974;SDS011;44751;52.236;5.178;2022-12-01T20:06:27;28.35;;;14.65;;
58974;SDS011;44751;52.236;5.178;2022-12-01T20:08:56;28.17;;;14.88;;
58974;SDS011;44751;52.236;5.178;2022-12-01T20:11:27;27.65;;;14.60;;
58974;SDS011;44751;52.236;5.178;2022-12-01T20:13:56;31.67;;;15.60;;
58974;SDS011;44751;52.236;5.178;2022-12-01T20:16:24;31.17;;;15.18;;
58974;SDS011;44751;52.236;5.178;2022-12-01T20:18:52;28.00;;;14.27;;
58974;SDS011;44751;52.236;5.178;2022-12-01T20:21:20;30.35;;;15.82;;
58974;SDS011;44751;52.236;5.178;2022-12-01T20:23:49;34.47;;;17.58;;
58974;SDS011;44751;52.236;5.178;2022-12-01T20:26:21;32.30;;;16.73;;
58974;SDS011;44751;52.236;5.178;2022-12-01T20:28:49;35.20;;;16.63;;
58974;SDS011;44751;52.236;5.178;2022-12-01T20:31:18;30.13;;;16.35;;
58974;SDS011;44751;52.236;5.178;2022-12-01T20:33:51;32.72;;;16.75;;
58974;SDS011;44751;52.236;5.178;2022-12-01T20:36:19;36.92;;;16.75;;
58974;SDS011;44751;52.236;5.178;2022-12-01T20:38:46;32.40;;;16.40;;
58974;SDS011;44751;52.236;5.178;2022-12-01T20:41:16;42.08;;;18.50;;
58974;SDS011;44751;52.236;5.178;2022-12-01T20:43:43;39.95;;;19.17;;
58974;SDS011;44751;52.236;5.178;2022-12-01T20:46:10;44.75;;;19.77;;
58974;SDS011;44751;52.236;5.178;2022-12-01T20:48:37;40.70;;;20.92;;
58974;SDS011;44751;52.236;5.178;2022-12-01T20:51:05;46.05;;;21.48;;
58974;SDS011;44751;52.236;5.178;2022-12-01T20:53:32;47.13;;;21.50;;
58974;SDS011;44751;52.236;5.178;2022-12-01T20:56:02;39.65;;;20.40;;
58974;SDS011;44751;52.236;5.178;2022-12-01T20:58:29;40.38;;;21.00;;
58974;SDS011;44751;52.236;5.178;2022-12-01T21:00:56;40.92;;;21.27;;
58974;SDS011;44751;52.236;5.178;2022-12-01T21:03:22;48.67;;;21.80;;
58974;SDS011;44751;52.236;5.178;2022-12-01T21:05:49;45.47;;;23.17;;
58974;SDS011;44751;52.236;5.178;2022-12-01T21:08:16;45.75;;;23.80;;
58974;SDS011;44751;52.236;5.178;2022-12-01T21:10:49;46.42;;;22.65;;
58974;SDS011;44751;52.236;5.178;2022-12-01T21:13:17;51.17;;;24.80;;
58974;SDS011;44751;52.236;5.178;2022-12-01T21:16:09;47.97;;;23.33;;
58974;SDS011;44751;52.236;5.178;2022-12-01T21:18:51;47.33;;;22.73;;
58974;SDS011;44751;52.236;5.178;2022-12-01T21:21:26;46.28;;;22.05;;
58974;SDS011;44751;52.236;5.178;2022-12-01T21:24:00;46.70;;;24.73;;
58974;SDS011;44751;52.236;5.178;2022-12-01T21:26:37;50.13;;;24.70;;
58974;SDS011;44751;52.236;5.178;2022-12-01T21:29:20;45.20;;;23.48;;